sensor_id;sensor_type;location;lat;lon;timestamp;temperature;humidity
18712;DHT22;9485;49.386;8.674;2022-07-23T00:00:49;27.20;54.20
18712;DHT22;9485;49.386;8.674;2022-07-23T00:06:10;27.10;54.70
18712;DHT22;9485;49.386;8.674;2022-07-23T00:11:30;27.10;54.60
18712;DHT22;9485;49.386;8.674;2022-07-23T00:16:52;27.10;54.50
18712;DHT22;9485;49.386;8.674;2022-07-23T00:22:13;27.00;54.60
18712;DHT22;9485;49.386;8.674;2022-07-23T00:27:33;26.90;54.70
18712;DHT22;9485;49.386;8.674;2022-07-23T00:32:57;26.80;54.90
18712;DHT22;9485;49.386;8.674;2022-07-23T00:38:19;26.80;55.00
18712;DHT22;9485;49.386;8.674;2022-07-23T00:43:40;26.70;55.00
18712;DHT22;9485;49.386;8.674;2022-07-23T00:49:02;26.60;55.10
18712;DHT22;9485;49.386;8.674;2022-07-23T00:54:24;26.60;55.00
18712;DHT22;9485;49.386;8.674;2022-07-23T00:59:46;26.50;54.80
18712;DHT22;9485;49.386;8.674;2022-07-23T01:05:09;26.50;54.60
18712;DHT22;9485;49.386;8.674;2022-07-23T01:10:31;26.50;54.50
18712;DHT22;9485;49.386;8.674;2022-07-23T01:15:51;26.50;54.40
18712;DHT22;9485;49.386;8.674;2022-07-23T01:21:13;26.40;54.60
18712;DHT22;9485;49.386;8.674;2022-07-23T01:26:41;26.30;54.60
18712;DHT22;9485;49.386;8.674;2022-07-23T01:32:04;26.20;55.00
18712;DHT22;9485;49.386;8.674;2022-07-23T01:37:25;26.10;54.80
18712;DHT22;9485;49.386;8.674;2022-07-23T01:42:47;26.00;55.10
18712;DHT22;9485;49.386;8.674;2022-07-23T01:48:09;25.90;55.70
18712;DHT22;9485;49.386;8.674;2022-07-23T01:53:33;25.90;55.50
18712;DHT22;9485;49.386;8.674;2022-07-23T01:58:55;25.70;55.40
18712;DHT22;9485;49.386;8.674;2022-07-23T02:04:16;25.60;55.60
18712;DHT22;9485;49.386;8.674;2022-07-23T02:09:37;25.60;55.60
18712;DHT22;9485;49.386;8.674;2022-07-23T02:14:59;25.50;55.60
18712;DHT22;9485;49.386;8.674;2022-07-23T02:20:19;25.40;55.70
18712;DHT22;9485;49.386;8.674;2022-07-23T02:25:40;25.30;55.70
18712;DHT22;9485;49.386;8.674;2022-07-23T02:31:02;25.30;55.80
18712;DHT22;9485;49.386;8.674;2022-07-23T02:36:23;25.20;56.00
18712;DHT22;9485;49.386;8.674;2022-07-23T02:41:46;25.10;56.00
18712;DHT22;9485;49.386;8.674;2022-07-23T02:47:08;25.00;56.20
18712;DHT22;9485;49.386;8.674;2022-07-23T02:52:29;25.00;56.40
18712;DHT22;9485;49.386;8.674;2022-07-23T02:57:49;24.90;56.50
18712;DHT22;9485;49.386;8.674;2022-07-23T03:03:11;24.90;56.60
18712;DHT22;9485;49.386;8.674;2022-07-23T03:08:32;24.90;56.90
18712;DHT22;9485;49.386;8.674;2022-07-23T03:13:53;24.90;56.90
18712;DHT22;9485;49.386;8.674;2022-07-23T03:19:16;24.80;57.00
18712;DHT22;9485;49.386;8.674;2022-07-23T03:24:36;24.80;57.10
18712;DHT22;9485;49.386;8.674;2022-07-23T03:30:17;24.80;57.30
18712;DHT22;9485;49.386;8.674;2022-07-23T03:35:39;24.80;57.30
18712;DHT22;9485;49.386;8.674;2022-07-23T03:41:11;24.80;57.50
18712;DHT22;9485;49.386;8.674;2022-07-23T03:46:31;24.80;57.30
18712;DHT22;9485;49.386;8.674;2022-07-23T03:51:53;24.80;57.50
18712;DHT22;9485;49.386;8.674;2022-07-23T03:57:13;24.80;57.60
18712;DHT22;9485;49.386;8.674;2022-07-23T04:02:34;24.80;57.40
18712;DHT22;9485;49.386;8.674;2022-07-23T04:07:57;24.70;57.50
18712;DHT22;9485;49.386;8.674;2022-07-23T04:13:18;24.70;57.70
18712;DHT22;9485;49.386;8.674;2022-07-23T04:18:40;24.60;57.70
18712;DHT22;9485;49.386;8.674;2022-07-23T04:24:09;24.60;57.90
18712;DHT22;9485;49.386;8.674;2022-07-23T04:29:30;24.60;58.70
18712;DHT22;9485;49.386;8.674;2022-07-23T04:34:51;24.50;59.00
18712;DHT22;9485;49.386;8.674;2022-07-23T04:40:16;24.40;59.40
18712;DHT22;9485;49.386;8.674;2022-07-23T04:45:40;24.30;60.60
18712;DHT22;9485;49.386;8.674;2022-07-23T04:51:00;24.10;60.20
18712;DHT22;9485;49.386;8.674;2022-07-23T04:56:24;23.90;60.80
18712;DHT22;9485;49.386;8.674;2022-07-23T05:01:45;23.70;61.80
18712;DHT22;9485;49.386;8.674;2022-07-23T05:07:05;23.60;62.20
18712;DHT22;9485;49.386;8.674;2022-07-23T05:12:28;23.50;62.80
18712;DHT22;9485;49.386;8.674;2022-07-23T05:17:49;23.50;63.60
18712;DHT22;9485;49.386;8.674;2022-07-23T05:23:10;23.50;63.90
18712;DHT22;9485;49.386;8.674;2022-07-23T05:28:32;23.50;64.40
18712;DHT22;9485;49.386;8.674;2022-07-23T05:33:53;23.50;64.60
18712;DHT22;9485;49.386;8.674;2022-07-23T05:39:13;23.40;65.30
18712;DHT22;9485;49.386;8.674;2022-07-23T05:44:37;23.40;64.90
18712;DHT22;9485;49.386;8.674;2022-07-23T05:49:58;23.40;65.50
18712;DHT22;9485;49.386;8.674;2022-07-23T05:55:29;23.30;65.50
18712;DHT22;9485;49.386;8.674;2022-07-23T06:00:52;23.30;65.90
18712;DHT22;9485;49.386;8.674;2022-07-23T06:06:13;23.40;66.60
18712;DHT22;9485;49.386;8.674;2022-07-23T06:11:34;23.40;66.80
18712;DHT22;9485;49.386;8.674;2022-07-23T06:16:56;23.50;67.40
18712;DHT22;9485;49.386;8.674;2022-07-23T06:22:16;23.60;67.50
18712;DHT22;9485;49.386;8.674;2022-07-23T06:27:37;23.70;67.10
18712;DHT22;9485;49.386;8.674;2022-07-23T06:32:59;23.80;67.20
18712;DHT22;9485;49.386;8.674;2022-07-23T06:38:19;23.90;67.70
18712;DHT22;9485;49.386;8.674;2022-07-23T06:43:40;23.90;67.50
18712;DHT22;9485;49.386;8.674;2022-07-23T06:49:03;24.00;67.60
18712;DHT22;9485;49.386;8.674;2022-07-23T06:54:24;24.00;67.50
18712;DHT22;9485;49.386;8.674;2022-07-23T06:59:44;24.00;67.20
18712;DHT22;9485;49.386;8.674;2022-07-23T07:05:07;24.00;67.40
18712;DHT22;9485;49.386;8.674;2022-07-23T07:10:28;23.90;67.70
18712;DHT22;9485;49.386;8.674;2022-07-23T07:15:48;23.90;67.70
18712;DHT22;9485;49.386;8.674;2022-07-23T07:21:10;24.00;68.10
18712;DHT22;9485;49.386;8.674;2022-07-23T07:26:31;24.10;68.60
18712;DHT22;9485;49.386;8.674;2022-07-23T07:31:52;24.30;68.50
18712;DHT22;9485;49.386;8.674;2022-07-23T07:37:14;24.50;68.60
18712;DHT22;9485;49.386;8.674;2022-07-23T07:42:34;24.80;68.80
18712;DHT22;9485;49.386;8.674;2022-07-23T07:47:55;25.10;68.70
18712;DHT22;9485;49.386;8.674;2022-07-23T07:53:17;25.40;67.90
18712;DHT22;9485;49.386;8.674;2022-07-23T07:58:38;25.70;66.70
18712;DHT22;9485;49.386;8.674;2022-07-23T08:03:58;25.90;67.10
18712;DHT22;9485;49.386;8.674;2022-07-23T08:09:20;26.20;66.90
18712;DHT22;9485;49.386;8.674;2022-07-23T08:14:41;26.50;65.80
18712;DHT22;9485;49.386;8.674;2022-07-23T08:20:01;26.70;65.10
18712;DHT22;9485;49.386;8.674;2022-07-23T08:25:26;26.80;64.50
18712;DHT22;9485;49.386;8.674;2022-07-23T08:30:47;26.90;64.40
18712;DHT22;9485;49.386;8.674;2022-07-23T08:36:09;27.20;64.30
18712;DHT22;9485;49.386;8.674;2022-07-23T08:41:31;27.40;63.40
18712;DHT22;9485;49.386;8.674;2022-07-23T08:46:52;27.50;63.20
18712;DHT22;9485;49.386;8.674;2022-07-23T08:52:13;27.50;62.40
18712;DHT22;9485;49.386;8.674;2022-07-23T08:57:36;27.50;62.30
18712;DHT22;9485;49.386;8.674;2022-07-23T09:02:58;27.70;62.00
18712;DHT22;9485;49.386;8.674;2022-07-23T09:08:20;27.90;62.90
18712;DHT22;9485;49.386;8.674;2022-07-23T09:13:46;28.50;62.80
18712;DHT22;9485;49.386;8.674;2022-07-23T09:19:08;29.10;61.00
18712;DHT22;9485;49.386;8.674;2022-07-23T09:24:31;29.50;60.50
18712;DHT22;9485;49.386;8.674;2022-07-23T09:29:56;29.90;59.60
18712;DHT22;9485;49.386;8.674;2022-07-23T09:35:17;30.40;58.90
18712;DHT22;9485;49.386;8.674;2022-07-23T09:40:38;31.00;58.40
18712;DHT22;9485;49.386;8.674;2022-07-23T09:46:19;31.60;57.70
18712;DHT22;9485;49.386;8.674;2022-07-23T09:51:44;32.20;55.20
18712;DHT22;9485;49.386;8.674;2022-07-23T09:57:08;32.70;54.90
18712;DHT22;9485;49.386;8.674;2022-07-23T10:02:36;33.20;55.20
18712;DHT22;9485;49.386;8.674;2022-07-23T10:08:18;33.60;53.40
18712;DHT22;9485;49.386;8.674;2022-07-23T10:13:59;33.90;53.00
18712;DHT22;9485;49.386;8.674;2022-07-23T10:19:32;34.20;53.20
18712;DHT22;9485;49.386;8.674;2022-07-23T10:24:58;34.60;52.70
18712;DHT22;9485;49.386;8.674;2022-07-23T10:30:30;35.00;51.00
18712;DHT22;9485;49.386;8.674;2022-07-23T10:36:04;35.40;50.70
18712;DHT22;9485;49.386;8.674;2022-07-23T10:41:34;35.70;50.40
18712;DHT22;9485;49.386;8.674;2022-07-23T10:46:57;35.90;49.80
18712;DHT22;9485;49.386;8.674;2022-07-23T10:52:41;36.10;50.40
18712;DHT22;9485;49.386;8.674;2022-07-23T10:58:03;36.30;48.60
18712;DHT22;9485;49.386;8.674;2022-07-23T11:03:31;36.30;48.70
18712;DHT22;9485;49.386;8.674;2022-07-23T11:09:24;36.40;47.10
18712;DHT22;9485;49.386;8.674;2022-07-23T11:15:08;36.40;46.70
18712;DHT22;9485;49.386;8.674;2022-07-23T11:20:30;36.50;45.70
18712;DHT22;9485;49.386;8.674;2022-07-23T11:25:52;36.70;47.10
18712;DHT22;9485;49.386;8.674;2022-07-23T11:31:17;36.80;46.60
18712;DHT22;9485;49.386;8.674;2022-07-23T11:36:49;36.90;44.70
18712;DHT22;9485;49.386;8.674;2022-07-23T11:42:18;36.90;45.00
18712;DHT22;9485;49.386;8.674;2022-07-23T11:47:38;37.00;45.20
18712;DHT22;9485;49.386;8.674;2022-07-23T11:52:59;37.10;46.50
18712;DHT22;9485;49.386;8.674;2022-07-23T11:58:21;37.30;45.60
18712;DHT22;9485;49.386;8.674;2022-07-23T12:03:49;37.30;45.30
18712;DHT22;9485;49.386;8.674;2022-07-23T12:09:11;37.30;44.20
18712;DHT22;9485;49.386;8.674;2022-07-23T12:14:33;37.30;45.40
18712;DHT22;9485;49.386;8.674;2022-07-23T12:20:12;37.20;45.20
18712;DHT22;9485;49.386;8.674;2022-07-23T12:25:37;37.30;45.20
18712;DHT22;9485;49.386;8.674;2022-07-23T12:31:01;37.30;44.40
18712;DHT22;9485;49.386;8.674;2022-07-23T12:36:36;37.20;44.00
18712;DHT22;9485;49.386;8.674;2022-07-23T12:41:59;36.90;42.60
18712;DHT22;9485;49.386;8.674;2022-07-23T12:47:21;36.70;43.80
18712;DHT22;9485;49.386;8.674;2022-07-23T12:52:42;36.40;43.70
18712;DHT22;9485;49.386;8.674;2022-07-23T12:58:07;36.10;43.70
18712;DHT22;9485;49.386;8.674;2022-07-23T13:03:36;35.80;43.70
18712;DHT22;9485;49.386;8.674;2022-07-23T13:08:58;35.50;43.10
18712;DHT22;9485;49.386;8.674;2022-07-23T13:14:20;35.10;43.30
18712;DHT22;9485;49.386;8.674;2022-07-23T13:19:43;34.60;44.50
18712;DHT22;9485;49.386;8.674;2022-07-23T13:25:05;34.30;45.50
18712;DHT22;9485;49.386;8.674;2022-07-23T13:30:26;34.00;45.80
18712;DHT22;9485;49.386;8.674;2022-07-23T13:35:49;33.70;46.00
18712;DHT22;9485;49.386;8.674;2022-07-23T13:41:10;33.50;46.00
18712;DHT22;9485;49.386;8.674;2022-07-23T13:46:31;33.40;47.10
18712;DHT22;9485;49.386;8.674;2022-07-23T13:51:53;33.50;46.90
18712;DHT22;9485;49.386;8.674;2022-07-23T13:57:14;33.70;46.70
18712;DHT22;9485;49.386;8.674;2022-07-23T14:02:36;33.70;46.10
18712;DHT22;9485;49.386;8.674;2022-07-23T14:07:58;33.60;45.80
18712;DHT22;9485;49.386;8.674;2022-07-23T14:13:20;33.30;45.90
18712;DHT22;9485;49.386;8.674;2022-07-23T14:18:40;33.10;46.10
18712;DHT22;9485;49.386;8.674;2022-07-23T14:24:03;32.90;46.50
18712;DHT22;9485;49.386;8.674;2022-07-23T14:29:24;32.80;46.30
18712;DHT22;9485;49.386;8.674;2022-07-23T14:34:45;32.70;46.80
18712;DHT22;9485;49.386;8.674;2022-07-23T14:40:08;32.70;47.30
18712;DHT22;9485;49.386;8.674;2022-07-23T14:45:29;32.90;47.30
18712;DHT22;9485;49.386;8.674;2022-07-23T14:50:50;33.10;46.80
18712;DHT22;9485;49.386;8.674;2022-07-23T14:56:12;33.30;46.40
18712;DHT22;9485;49.386;8.674;2022-07-23T15:01:34;33.40;46.00
18712;DHT22;9485;49.386;8.674;2022-07-23T15:06:55;33.40;45.40
18712;DHT22;9485;49.386;8.674;2022-07-23T15:12:17;33.30;45.40
18712;DHT22;9485;49.386;8.674;2022-07-23T15:17:38;33.30;45.70
18712;DHT22;9485;49.386;8.674;2022-07-23T15:22:58;33.20;45.70
18712;DHT22;9485;49.386;8.674;2022-07-23T15:28:21;33.10;45.70
18712;DHT22;9485;49.386;8.674;2022-07-23T15:33:42;33.00;45.00
18712;DHT22;9485;49.386;8.674;2022-07-23T15:39:03;32.90;45.40
18712;DHT22;9485;49.386;8.674;2022-07-23T15:44:25;32.70;45.00
18712;DHT22;9485;49.386;8.674;2022-07-23T15:49:46;32.60;45.00
18712;DHT22;9485;49.386;8.674;2022-07-23T15:55:08;32.50;45.30
18712;DHT22;9485;49.386;8.674;2022-07-23T16:00:31;32.30;46.00
18712;DHT22;9485;49.386;8.674;2022-07-23T16:05:52;32.20;44.80
18712;DHT22;9485;49.386;8.674;2022-07-23T16:11:13;32.10;45.60
18712;DHT22;9485;49.386;8.674;2022-07-23T16:16:35;32.00;45.30
18712;DHT22;9485;49.386;8.674;2022-07-23T16:21:56;32.00;45.50
18712;DHT22;9485;49.386;8.674;2022-07-23T16:27:17;32.00;45.20
18712;DHT22;9485;49.386;8.674;2022-07-23T16:32:39;32.00;45.30
18712;DHT22;9485;49.386;8.674;2022-07-23T16:38:00;32.00;44.90
18712;DHT22;9485;49.386;8.674;2022-07-23T16:43:22;31.90;44.90
18712;DHT22;9485;49.386;8.674;2022-07-23T16:48:44;31.80;44.90
18712;DHT22;9485;49.386;8.674;2022-07-23T16:54:05;31.80;44.60
18712;DHT22;9485;49.386;8.674;2022-07-23T16:59:25;31.60;44.30
18712;DHT22;9485;49.386;8.674;2022-07-23T17:04:47;31.50;44.60
18712;DHT22;9485;49.386;8.674;2022-07-23T17:10:09;31.50;44.80
18712;DHT22;9485;49.386;8.674;2022-07-23T17:15:30;31.40;44.80
18712;DHT22;9485;49.386;8.674;2022-07-23T17:20:52;31.40;44.90
18712;DHT22;9485;49.386;8.674;2022-07-23T17:26:13;31.40;44.70
18712;DHT22;9485;49.386;8.674;2022-07-23T17:31:34;31.30;44.50
18712;DHT22;9485;49.386;8.674;2022-07-23T17:36:56;31.20;44.60
18712;DHT22;9485;49.386;8.674;2022-07-23T17:42:16;31.20;45.00
18712;DHT22;9485;49.386;8.674;2022-07-23T17:47:36;31.10;44.60
18712;DHT22;9485;49.386;8.674;2022-07-23T17:52:58;31.00;44.50
18712;DHT22;9485;49.386;8.674;2022-07-23T17:58:20;31.00;45.30
18712;DHT22;9485;49.386;8.674;2022-07-23T18:03:40;30.90;44.80
18712;DHT22;9485;49.386;8.674;2022-07-23T18:09:04;30.80;44.70
18712;DHT22;9485;49.386;8.674;2022-07-23T18:14:24;30.70;44.50
18712;DHT22;9485;49.386;8.674;2022-07-23T18:19:45;30.60;44.70
18712;DHT22;9485;49.386;8.674;2022-07-23T18:25:08;30.50;45.20
18712;DHT22;9485;49.386;8.674;2022-07-23T18:30:30;30.50;45.60
18712;DHT22;9485;49.386;8.674;2022-07-23T18:35:51;30.50;45.70
18712;DHT22;9485;49.386;8.674;2022-07-23T18:41:13;30.40;46.10
18712;DHT22;9485;49.386;8.674;2022-07-23T18:46:34;30.40;46.00
18712;DHT22;9485;49.386;8.674;2022-07-23T18:51:55;30.30;45.90
18712;DHT22;9485;49.386;8.674;2022-07-23T18:57:17;30.20;46.50
18712;DHT22;9485;49.386;8.674;2022-07-23T19:02:38;30.10;46.70
18712;DHT22;9485;49.386;8.674;2022-07-23T19:07:59;29.90;47.10
18712;DHT22;9485;49.386;8.674;2022-07-23T19:13:20;29.80;47.10
18712;DHT22;9485;49.386;8.674;2022-07-23T19:18:41;29.70;47.00
18712;DHT22;9485;49.386;8.674;2022-07-23T19:24:01;29.50;47.20
18712;DHT22;9485;49.386;8.674;2022-07-23T19:29:24;29.30;47.30
18712;DHT22;9485;49.386;8.674;2022-07-23T19:34:44;29.10;48.10
18712;DHT22;9485;49.386;8.674;2022-07-23T19:40:07;28.90;48.40
18712;DHT22;9485;49.386;8.674;2022-07-23T19:45:29;28.70;48.80
18712;DHT22;9485;49.386;8.674;2022-07-23T19:50:50;28.50;48.90
18712;DHT22;9485;49.386;8.674;2022-07-23T19:56:11;28.40;49.00
18712;DHT22;9485;49.386;8.674;2022-07-23T20:01:33;28.30;49.20
18712;DHT22;9485;49.386;8.674;2022-07-23T20:06:54;28.10;49.30
18712;DHT22;9485;49.386;8.674;2022-07-23T20:12:17;28.00;49.20
18712;DHT22;9485;49.386;8.674;2022-07-23T20:17:39;27.80;49.60
18712;DHT22;9485;49.386;8.674;2022-07-23T20:23:00;27.80;49.20
18712;DHT22;9485;49.386;8.674;2022-07-23T20:28:20;27.70;49.30
18712;DHT22;9485;49.386;8.674;2022-07-23T20:33:43;27.60;49.20
18712;DHT22;9485;49.386;8.674;2022-07-23T20:39:06;27.40;49.10
18712;DHT22;9485;49.386;8.674;2022-07-23T20:44:27;27.40;49.20
18712;DHT22;9485;49.386;8.674;2022-07-23T20:49:49;27.30;49.40
18712;DHT22;9485;49.386;8.674;2022-07-23T20:55:10;27.20;49.60
18712;DHT22;9485;49.386;8.674;2022-07-23T21:00:31;27.10;49.90
18712;DHT22;9485;49.386;8.674;2022-07-23T21:05:54;27.10;50.00
18712;DHT22;9485;49.386;8.674;2022-07-23T21:11:15;27.00;50.20
18712;DHT22;9485;49.386;8.674;2022-07-23T21:16:35;27.00;50.10
18712;DHT22;9485;49.386;8.674;2022-07-23T21:21:57;26.90;50.30
18712;DHT22;9485;49.386;8.674;2022-07-23T21:27:18;26.90;50.20
18712;DHT22;9485;49.386;8.674;2022-07-23T21:32:39;26.90;50.20
18712;DHT22;9485;49.386;8.674;2022-07-23T21:38:01;26.80;50.30
18712;DHT22;9485;49.386;8.674;2022-07-23T21:43:22;26.90;50.40
18712;DHT22;9485;49.386;8.674;2022-07-23T21:48:43;26.90;50.30
18712;DHT22;9485;49.386;8.674;2022-07-23T21:54:05;26.80;50.20
18712;DHT22;9485;49.386;8.674;2022-07-23T21:59:26;26.80;50.10
18712;DHT22;9485;49.386;8.674;2022-07-23T22:04:47;26.80;50.30
18712;DHT22;9485;49.386;8.674;2022-07-23T22:10:09;26.80;50.40
18712;DHT22;9485;49.386;8.674;2022-07-23T22:15:31;26.70;50.40
18712;DHT22;9485;49.386;8.674;2022-07-23T22:20:51;26.50;50.60
18712;DHT22;9485;49.386;8.674;2022-07-23T22:26:14;26.50;50.50
18712;DHT22;9485;49.386;8.674;2022-07-23T22:31:34;26.40;50.70
18712;DHT22;9485;49.386;8.674;2022-07-23T22:36:55;26.30;50.80
18712;DHT22;9485;49.386;8.674;2022-07-23T22:42:18;26.20;51.00
18712;DHT22;9485;49.386;8.674;2022-07-23T22:47:38;26.20;51.20
18712;DHT22;9485;49.386;8.674;2022-07-23T22:52:59;26.00;51.00
18712;DHT22;9485;49.386;8.674;2022-07-23T22:58:21;25.90;51.00
18712;DHT22;9485;49.386;8.674;2022-07-23T23:03:42;25.90;51.40
18712;DHT22;9485;49.386;8.674;2022-07-23T23:09:02;25.70;51.30
18712;DHT22;9485;49.386;8.674;2022-07-23T23:14:25;25.70;51.50
18712;DHT22;9485;49.386;8.674;2022-07-23T23:19:46;25.50;51.60
18712;DHT22;9485;49.386;8.674;2022-07-23T23:25:07;25.40;51.70
18712;DHT22;9485;49.386;8.674;2022-07-23T23:30:30;25.30;51.80
18712;DHT22;9485;49.386;8.674;2022-07-23T23:35:51;25.20;51.90
18712;DHT22;9485;49.386;8.674;2022-07-23T23:41:11;25.00;52.00
18712;DHT22;9485;49.386;8.674;2022-07-23T23:46:33;25.00;52.40
18712;DHT22;9485;49.386;8.674;2022-07-23T23:51:53;24.90;52.70
18712;DHT22;9485;49.386;8.674;2022-07-23T23:57:14;24.80;52.70
